Time;durP1;ratioP1;P1;durP2;ratioP2;P2;SDS_P1;SDS_P2;PMS_P1;PMS_P2;Temp;Humidity;BMP_temperature;BMP_pressure;BME280_temperature;BME280_humidity;BME280_pressure;Samples;Min_cycle;Max_cycle;Signal;HPM_P1;HPM_P2
2020/12/20 00:00:38;;;;;;;2.90;2.40;;;;;21.40;100486.00;;;;2065467;28;20296;-73
2020/12/20 00:01:40;;;;;;;3.27;2.97;;;;;21.40;100490.00;;;;2071004;28;20806;-73
2020/12/20 00:02:46;;;;;;;4.53;2.95;;;;;21.40;100483.00;;;;2054920;28;20809;-73
2020/12/20 00:03:46;;;;;;;2.90;2.70;;;;;21.40;100492.00;;;;2030966;28;20471;-73
2020/12/20 00:04:46;;;;;;;3.60;2.73;;;;;21.40;100486.00;;;;2046680;29;20253;-73
2020/12/20 00:05:47;;;;;;;3.30;2.97;;;;;21.40;100481.00;;;;2045639;28;20226;-73
2020/12/20 00:06:47;;;;;;;3.43;3.10;;;;;21.40;100476.00;;;;2058874;28;20218;-73
2020/12/20 00:07:48;;;;;;;3.27;3.03;;;;;21.40;100482.00;;;;2066472;28;20237;-73
2020/12/20 00:08:48;;;;;;;3.80;3.40;;;;;21.40;100487.00;;;;2062801;28;20217;-73
2020/12/20 00:09:49;;;;;;;2.60;2.40;;;;;21.40;100488.00;;;;2066845;28;20274;-73
2020/12/20 00:10:49;;;;;;;3.27;3.07;;;;;21.30;100489.00;;;;2058533;28;20230;-73
2020/12/20 00:11:51;;;;;;;2.87;2.57;;;;;21.40;100488.00;;;;2050140;28;20216;-74
2020/12/20 00:12:54;;;;;;;2.95;2.75;;;;;21.40;100489.00;;;;2058650;28;20242;-72
2020/12/20 00:13:54;;;;;;;3.40;3.13;;;;;21.30;100492.00;;;;2059389;28;20225;-74
2020/12/20 00:14:54;;;;;;;3.07;2.80;;;;;21.30;100495.00;;;;2070641;28;20221;-74
2020/12/20 00:15:55;;;;;;;3.20;2.80;;;;;21.30;100490.00;;;;2066133;28;20213;-74
2020/12/20 00:17:03;;;;;;;3.37;3.07;;;;;21.30;100459.00;;;;2067251;28;20216;-74
2020/12/20 00:18:03;;;;;;;3.10;2.90;;;;;21.30;100486.00;;;;2073037;28;20220;-75
2020/12/20 00:19:03;;;;;;;2.97;2.77;;;;;21.30;100491.00;;;;2076714;28;20703;-73
2020/12/20 00:20:04;;;;;;;3.10;2.90;;;;;21.30;100486.00;;;;2056418;28;20807;-73
2020/12/20 00:21:05;;;;;;;2.72;2.53;;;;;21.30;100483.00;;;;2052769;28;20219;-74
2020/12/20 00:22:07;;;;;;;3.47;2.80;;;;;21.30;100491.00;;;;2055034;28;20218;-74
2020/12/20 00:23:07;;;;;;;3.25;2.65;;;;;21.30;100491.00;;;;2060698;28;21342;-75
2020/12/20 00:24:10;;;;;;;3.00;2.80;;;;;21.30;100495.00;;;;2062726;28;20224;-73
2020/12/20 00:25:11;;;;;;;3.00;2.60;;;;;21.30;100487.00;;;;2061065;28;20278;-73
2020/12/20 00:26:12;;;;;;;2.73;2.40;;;;;21.30;100497.00;;;;2046544;28;20320;-74
2020/12/20 00:27:13;;;;;;;3.13;2.87;;;;;21.30;100493.00;;;;2061650;28;20725;-74
2020/12/20 00:28:16;;;;;;;3.03;2.75;;;;;21.30;100503.00;;;;2069968;28;20356;-74
2020/12/20 00:29:16;;;;;;;2.67;2.47;;;;;21.30;100503.00;;;;2064240;28;20220;-72
2020/12/20 00:30:17;;;;;;;2.80;2.60;;;;;21.30;100457.00;;;;2056649;28;20249;-72
2020/12/20 00:31:17;;;;;;;2.87;2.67;;;;;21.20;100501.00;;;;2063916;28;20213;-73
2020/12/20 00:32:17;;;;;;;3.10;2.90;;;;;21.30;100500.00;;;;2047244;28;20218;-73
2020/12/20 00:33:18;;;;;;;2.80;2.60;;;;;21.20;100496.00;;;;2063908;28;20221;-73
2020/12/20 00:34:18;;;;;;;2.77;2.53;;;;;21.20;100501.00;;;;2066109;28;22127;-73
2020/12/20 00:35:21;;;;;;;2.70;2.50;;;;;21.20;100497.00;;;;2063517;28;20210;-74
2020/12/20 00:36:21;;;;;;;2.65;2.45;;;;;21.30;100500.00;;;;2046587;28;20225;-73
2020/12/20 00:37:22;;;;;;;3.60;2.80;;;;;21.30;100500.00;;;;2067621;28;20642;-73
2020/12/20 00:38:22;;;;;;;3.00;2.80;;;;;21.30;100501.00;;;;2063996;28;20739;-73
2020/12/20 00:39:22;;;;;;;2.93;2.73;;;;;21.30;100493.00;;;;2071769;28;20217;-73
2020/12/20 00:40:23;;;;;;;3.03;2.37;;;;;21.30;100495.00;;;;2056769;28;20860;-72
2020/12/20 00:41:23;;;;;;;3.00;2.70;;;;;21.20;100497.00;;;;2055760;28;20222;-74
2020/12/20 00:42:24;;;;;;;2.60;2.40;;;;;21.30;100501.00;;;;2056725;28;20297;-73
2020/12/20 00:43:24;;;;;;;2.43;2.27;;;;;21.20;100510.00;;;;2071347;28;20734;-73
2020/12/20 00:44:25;;;;;;;2.63;2.43;;;;;21.20;100495.00;;;;2064856;28;20716;-73
2020/12/20 00:45:28;;;;;;;3.37;3.07;;;;;21.00;100483.00;;;;2071282;28;20715;-72
2020/12/20 00:46:28;;;;;;;2.90;2.70;;;;;21.20;100501.00;;;;2049120;28;20203;-73
2020/12/20 00:47:28;;;;;;;2.90;2.70;;;;;21.20;100498.00;;;;2056234;28;20214;-73
2020/12/20 00:48:29;;;;;;;2.73;2.53;;;;;21.30;100495.00;;;;2057152;28;20205;-72
2020/12/20 00:49:30;;;;;;;2.77;2.57;;;;;21.20;100488.00;;;;2057229;28;20212;-72
2020/12/20 00:50:31;;;;;;;2.40;2.20;;;;;21.20;100494.00;;;;2064019;28;20268;-72
2020/12/20 00:51:31;;;;;;;2.70;2.50;;;;;21.20;100492.00;;;;2056132;28;20222;-73
2020/12/20 00:52:31;;;;;;;3.30;2.70;;;;;21.20;100490.00;;;;2064059;28;20220;-72
2020/12/20 00:53:32;;;;;;;2.80;2.60;;;;;21.20;100485.00;;;;2079289;28;20232;-72
2020/12/20 00:54:32;;;;;;;3.07;2.87;;;;;21.20;100488.00;;;;2074226;28;20213;-72
2020/12/20 00:55:32;;;;;;;2.70;2.50;;;;;21.20;100480.00;;;;2070313;28;20420;-72
2020/12/20 00:56:33;;;;;;;2.97;2.67;;;;;21.20;100463.00;;;;2065440;28;20288;-71
2020/12/20 00:57:33;;;;;;;2.77;2.57;;;;;21.20;100482.00;;;;2070034;28;20253;-72
2020/12/20 00:58:33;;;;;;;3.40;3.10;;;;;21.20;100478.00;;;;2057605;28;20237;-73
2020/12/20 00:59:34;;;;;;;2.97;2.67;;;;;21.10;100478.00;;;;2071941;28;20833;-73
2020/12/20 01:00:34;;;;;;;2.83;2.33;;;;;21.20;100484.00;;;;2074648;28;20708;-73
2020/12/20 01:01:35;;;;;;;2.57;2.37;;;;;21.10;100476.00;;;;2080984;28;20704;-74
2020/12/20 01:02:35;;;;;;;3.03;2.70;;;;;21.20;100476.00;;;;2061672;28;20825;-73
2020/12/20 01:03:36;;;;;;;4.07;2.80;;;;;21.10;100478.00;;;;2042098;29;20912;-73
2020/12/20 01:04:37;;;;;;;2.88;2.25;;;;;21.20;100476.00;;;;2063548;28;20209;-72
2020/12/20 01:05:37;;;;;;;2.30;2.20;;;;;21.10;100479.00;;;;2080125;28;20564;-73
2020/12/20 01:06:38;;;;;;;2.70;2.50;;;;;21.10;100479.00;;;;2080632;28;20217;-73
2020/12/20 01:07:38;;;;;;;3.30;2.90;;;;;21.10;100475.00;;;;2063840;28;20241;-73
2020/12/20 01:08:38;;;;;;;2.80;2.60;;;;;21.20;100476.00;;;;2063869;28;20609;-74
2020/12/20 01:09:41;;;;;;;2.67;2.47;;;;;21.10;100476.00;;;;2069558;28;21215;-74
2020/12/20 01:10:41;;;;;;;2.80;2.60;;;;;21.20;100485.00;;;;2067105;28;20216;-74
2020/12/20 01:11:42;;;;;;;2.60;2.40;;;;;21.20;100492.00;;;;2069112;28;20300;-74
2020/12/20 01:12:42;;;;;;;2.70;2.50;;;;;21.10;100481.00;;;;2058791;28;20296;-74
2020/12/20 01:13:43;;;;;;;2.57;2.37;;;;;21.10;100497.00;;;;2072078;28;20770;-74
2020/12/20 01:14:44;;;;;;;3.10;2.90;;;;;21.10;100494.00;;;;2063560;28;20352;-74
2020/12/20 01:15:44;;;;;;;2.90;2.70;;;;;21.20;100494.00;;;;2063957;28;20218;-74
2020/12/20 01:16:44;;;;;;;2.57;2.37;;;;;21.10;100489.00;;;;2071761;28;20363;-73
2020/12/20 01:17:45;;;;;;;2.80;2.60;;;;;21.10;100479.00;;;;2071910;28;21044;-73
2020/12/20 01:18:45;;;;;;;2.83;2.53;;;;;21.10;100482.00;;;;2068518;28;20974;-74
2020/12/20 01:19:45;;;;;;;2.80;2.60;;;;;21.20;100498.00;;;;2067313;28;20695;-74
2020/12/20 01:20:46;;;;;;;2.60;2.40;;;;;21.10;100498.00;;;;2068291;28;20772;-74
2020/12/20 01:21:46;;;;;;;2.70;2.50;;;;;21.10;100493.00;;;;2076249;28;20680;-74
2020/12/20 01:22:46;;;;;;;2.27;2.17;;;;;21.10;100489.00;;;;2077059;28;20692;-74
2020/12/20 01:23:47;;;;;;;2.50;2.30;;;;;21.10;100489.00;;;;2067514;28;20750;-74
2020/12/20 01:24:47;;;;;;;2.57;2.37;;;;;21.10;100491.00;;;;2067990;28;20229;-74
2020/12/20 01:25:48;;;;;;;3.03;2.73;;;;;21.10;100490.00;;;;2059565;28;20584;-74
2020/12/20 01:26:48;;;;;;;2.73;2.53;;;;;21.10;100492.00;;;;2071944;28;20608;-74
2020/12/20 01:27:48;;;;;;;2.33;2.13;;;;;21.20;100485.00;;;;2076457;28;20847;-73
2020/12/20 01:28:49;;;;;;;2.50;2.30;;;;;21.10;100495.00;;;;2080727;28;20666;-74
2020/12/20 01:29:49;;;;;;;3.13;2.43;;;;;21.10;100499.00;;;;2067917;28;20682;-74
2020/12/20 01:30:52;;;;;;;2.90;2.60;;;;;21.10;100496.00;;;;2067944;28;20224;-73
2020/12/20 01:31:52;;;;;;;2.78;2.40;;;;;21.10;100496.00;;;;2067494;28;20285;-74
2020/12/20 01:32:52;;;;;;;2.37;2.17;;;;;21.10;100493.00;;;;2060254;28;20728;-73
2020/12/20 01:33:53;;;;;;;2.60;2.40;;;;;21.10;100495.00;;;;2051366;28;20214;-74
2020/12/20 01:34:53;;;;;;;2.90;2.60;;;;;21.10;100501.00;;;;2067982;28;20232;-74
2020/12/20 01:35:53;;;;;;;2.57;2.37;;;;;21.10;100501.00;;;;2071909;28;20292;-74
2020/12/20 01:36:57;;;;;;;2.50;2.20;;;;;21.10;100491.00;;;;2071909;28;20303;-73
2020/12/20 01:37:57;;;;;;;2.80;2.30;;;;;21.10;100491.00;;;;2068340;28;20217;-73
2020/12/20 01:38:57;;;;;;;2.57;2.40;;;;;21.10;100483.00;;;;2071935;28;20221;-73
2020/12/20 01:39:58;;;;;;;2.70;2.50;;;;;21.10;100484.00;;;;2079512;28;20267;-73
2020/12/20 01:40:58;;;;;;;5.73;2.60;;;;;21.10;100487.00;;;;2071062;28;20225;-74
2020/12/20 01:41:58;;;;;;;2.57;2.00;;;;;21.10;100494.00;;;;2058599;28;20806;-74
2020/12/20 01:42:59;;;;;;;2.63;2.43;;;;;21.10;100480.00;;;;2068899;28;20217;-73
2020/12/20 01:43:59;;;;;;;2.90;2.70;;;;;21.10;100495.00;;;;2058339;28;20234;-73
2020/12/20 01:44:59;;;;;;;2.53;2.33;;;;;21.00;100491.00;;;;2060744;28;20229;-73
2020/12/20 01:46:00;;;;;;;3.37;2.70;;;;;21.10;100494.00;;;;2080463;28;20309;-74
2020/12/20 01:47:00;;;;;;;2.20;1.90;;;;;21.00;100485.00;;;;2066071;28;20246;-73
2020/12/20 01:48:00;;;;;;;4.23;2.30;;;;;21.00;100491.00;;;;2060998;28;20214;-74
2020/12/20 01:49:01;;;;;;;2.37;2.27;;;;;21.10;100491.00;;;;2047627;28;20278;-74
2020/12/20 01:50:01;;;;;;;2.67;2.47;;;;;21.00;100487.00;;;;2069043;28;20270;-74
2020/12/20 01:51:02;;;;;;;2.60;2.40;;;;;21.00;100489.00;;;;2079935;28;20221;-73
2020/12/20 01:52:02;;;;;;;2.83;2.60;;;;;21.00;100494.00;;;;2066006;28;20353;-73
2020/12/20 01:53:03;;;;;;;3.60;2.50;;;;;21.10;100494.00;;;;2063689;28;20223;-74
2020/12/20 01:54:04;;;;;;;3.20;2.40;;;;;21.00;100495.00;;;;2063612;28;20999;-73
2020/12/20 01:55:04;;;;;;;2.45;2.25;;;;;21.00;100491.00;;;;2069544;28;20266;-74
2020/12/20 01:56:05;;;;;;;2.10;2.00;;;;;21.00;100490.00;;;;2049675;28;20814;-73
2020/12/20 01:57:05;;;;;;;2.40;2.20;;;;;21.00;100488.00;;;;2061609;28;20784;-74
2020/12/20 01:58:05;;;;;;;2.50;2.30;;;;;21.10;100489.00;;;;2077876;28;20287;-74
2020/12/20 01:59:06;;;;;;;2.43;2.23;;;;;21.00;100491.00;;;;2071549;28;20213;-74
2020/12/20 02:00:06;;;;;;;2.70;2.50;;;;;21.00;100496.00;;;;2063645;28;20321;-74
2020/12/20 02:01:07;;;;;;;2.07;1.97;;;;;21.00;100483.00;;;;2063480;28;20217;-73
2020/12/20 02:02:08;;;;;;;2.42;2.22;;;;;21.00;100487.00;;;;2062079;28;20640;-73
2020/12/20 02:03:08;;;;;;;2.23;2.10;;;;;21.00;100485.00;;;;2071674;28;20231;-73
2020/12/20 02:04:08;;;;;;;2.90;2.60;;;;;21.00;100490.00;;;;2065215;28;20225;-73
2020/12/20 02:05:09;;;;;;;2.77;2.33;;;;;21.00;100484.00;;;;2053759;28;20310;-74
2020/12/20 02:06:12;;;;;;;4.10;3.27;;;;;21.00;100483.00;;;;2063589;28;20217;-73
2020/12/20 02:07:12;;;;;;;2.78;2.33;;;;;21.00;100479.00;;;;2070631;28;20258;-73
2020/12/20 02:08:13;;;;;;;2.63;2.43;;;;;21.00;100483.00;;;;2071711;28;20211;-73
2020/12/20 02:09:13;;;;;;;2.63;2.43;;;;;21.00;100481.00;;;;2080351;28;20253;-74
2020/12/20 02:10:16;;;;;;;3.00;2.60;;;;;21.00;100483.00;;;;2073023;28;20233;-74
2020/12/20 02:11:16;;;;;;;2.80;2.60;;;;;21.00;100478.00;;;;2070956;28;20221;-73
2020/12/20 02:12:16;;;;;;;2.80;2.57;;;;;21.00;100488.00;;;;2063561;28;20218;-74
2020/12/20 02:13:17;;;;;;;2.80;2.03;;;;;21.00;100484.00;;;;2054080;28;20636;-74
2020/12/20 02:14:17;;;;;;;2.53;2.33;;;;;21.00;100495.00;;;;2050288;28;20212;-73
2020/12/20 02:15:17;;;;;;;2.43;2.23;;;;;21.10;100489.00;;;;2079198;28;20209;-74
2020/12/20 02:16:19;;;;;;;2.40;2.20;;;;;21.00;100484.00;;;;2063055;28;20963;-74
2020/12/20 02:17:19;;;;;;;2.70;2.20;;;;;21.00;100488.00;;;;2055559;28;20305;-74
2020/12/20 02:18:19;;;;;;;2.20;2.10;;;;;21.00;100489.00;;;;2063350;28;20222;-74
2020/12/20 02:19:22;;;;;;;2.37;1.97;;;;;21.00;100490.00;;;;2055610;28;20235;-74
2020/12/20 02:20:23;;;;;;;2.55;2.35;;;;;20.80;100490.00;;;;2063004;28;20354;-74
2020/12/20 02:21:23;;;;;;;1.97;1.77;;;;;21.00;100476.00;;;;2055957;28;20325;-74
2020/12/20 02:22:24;;;;;;;2.70;2.50;;;;;21.00;100484.00;;;;2070800;28;20222;-74
2020/12/20 02:23:24;;;;;;;2.40;2.20;;;;;20.90;100490.00;;;;2048102;28;21009;-74
2020/12/20 02:24:24;;;;;;;2.87;2.43;;;;;21.00;100490.00;;;;2055398;28;20842;-74
2020/12/20 02:25:25;;;;;;;2.60;2.40;;;;;21.00;100480.00;;;;2071499;28;20763;-74
2020/12/20 02:26:27;;;;;;;2.40;2.20;;;;;21.00;100483.00;;;;2079592;28;20220;-74
2020/12/20 02:27:28;;;;;;;2.28;2.08;;;;;21.00;100471.00;;;;2064506;28;20240;-74
2020/12/20 02:28:28;;;;;;;2.27;2.10;;;;;21.00;100486.00;;;;2070131;28;20596;-74
2020/12/20 02:29:29;;;;;;;2.57;2.37;;;;;20.90;100490.00;;;;2056568;28;20280;-74
2020/12/20 02:30:29;;;;;;;2.77;2.57;;;;;20.90;100488.00;;;;2063426;28;20217;-74
2020/12/20 02:31:30;;;;;;;2.30;2.10;;;;;21.00;100487.00;;;;2064787;28;20212;-74
2020/12/20 02:32:30;;;;;;;2.57;2.37;;;;;21.00;100487.00;;;;2080232;28;20241;-74
2020/12/20 02:33:31;;;;;;;2.90;2.40;;;;;21.00;100486.00;;;;2078611;28;20794;-72
2020/12/20 02:34:31;;;;;;;2.87;2.10;;;;;20.90;100486.00;;;;2064671;28;20238;-73
2020/12/20 02:35:31;;;;;;;2.47;2.27;;;;;20.90;100482.00;;;;2071516;28;20213;-73
2020/12/20 02:36:32;;;;;;;2.03;1.83;;;;;20.90;100487.00;;;;2069711;28;20220;-73
2020/12/20 02:37:32;;;;;;;2.00;1.80;;;;;20.90;100497.00;;;;2056805;28;20218;-73
2020/12/20 02:38:32;;;;;;;2.30;2.10;;;;;21.00;100491.00;;;;2063227;28;20243;-73
2020/12/20 02:39:33;;;;;;;2.67;2.40;;;;;21.00;100489.00;;;;2063179;28;20241;-74
2020/12/20 02:40:33;;;;;;;3.30;2.30;;;;;20.90;100491.00;;;;2057124;28;20210;-73
2020/12/20 02:41:35;;;;;;;2.90;2.10;;;;;20.90;100481.00;;;;2063321;28;20208;-73
2020/12/20 02:42:35;;;;;;;2.50;2.30;;;;;20.90;100480.00;;;;2061054;28;20312;-73
2020/12/20 02:43:35;;;;;;;3.00;2.30;;;;;21.00;100486.00;;;;2065573;28;20697;-73
2020/12/20 02:44:36;;;;;;;2.50;2.30;;;;;20.90;100484.00;;;;2070746;28;20632;-74
2020/12/20 02:45:36;;;;;;;3.00;2.10;;;;;20.90;100483.00;;;;2068333;28;20214;-73
2020/12/20 02:46:36;;;;;;;2.50;2.30;;;;;20.90;100486.00;;;;2071253;28;20264;-73
2020/12/20 02:47:37;;;;;;;2.00;1.90;;;;;20.90;100483.00;;;;2069015;28;20209;-73
2020/12/20 02:48:37;;;;;;;2.47;2.27;;;;;20.90;100482.00;;;;2065471;28;20725;-74
2020/12/20 02:49:37;;;;;;;2.43;2.20;;;;;20.90;100478.00;;;;2063327;28;20874;-73
2020/12/20 02:50:38;;;;;;;2.40;2.20;;;;;20.90;100475.00;;;;2065706;28;20630;-73
2020/12/20 02:51:39;;;;;;;2.00;1.90;;;;;20.90;100474.00;;;;2062536;28;20232;-74
2020/12/20 02:52:39;;;;;;;2.40;2.20;;;;;20.90;100476.00;;;;2063372;28;21285;-74
2020/12/20 02:53:40;;;;;;;2.70;2.50;;;;;20.90;100476.00;;;;2063231;28;20223;-73
2020/12/20 02:54:40;;;;;;;2.67;2.07;;;;;20.90;100478.00;;;;2071159;28;20228;-73
2020/12/20 02:55:41;;;;;;;2.17;2.07;;;;;20.90;100467.00;;;;2079847;28;20588;-73
2020/12/20 02:56:43;;;;;;;2.23;2.03;;;;;20.90;100474.00;;;;2068391;28;20645;-73
2020/12/20 02:57:43;;;;;;;2.70;2.47;;;;;20.90;100475.00;;;;2066400;28;20599;-73
2020/12/20 02:58:43;;;;;;;2.20;2.10;;;;;20.90;100464.00;;;;2067837;28;20220;-73
2020/12/20 02:59:44;;;;;;;2.33;2.07;;;;;20.90;100474.00;;;;2066322;28;20636;-73
2020/12/20 03:00:44;;;;;;;3.63;2.37;;;;;20.90;100470.00;;;;2067868;28;20217;-73
2020/12/20 03:01:44;;;;;;;2.50;2.27;;;;;20.90;100467.00;;;;2066498;28;20282;-73
2020/12/20 03:02:45;;;;;;;2.53;2.33;;;;;20.90;100475.00;;;;2063130;28;21020;-73
2020/12/20 03:03:45;;;;;;;4.23;2.30;;;;;20.90;100473.00;;;;2066520;28;20732;-73
2020/12/20 03:04:45;;;;;;;2.40;2.20;;;;;20.90;100444.00;;;;2059586;28;20606;-73
2020/12/20 03:05:46;;;;;;;2.37;2.07;;;;;20.90;100479.00;;;;2066736;28;20613;-73
2020/12/20 03:06:46;;;;;;;2.47;2.10;;;;;20.90;100478.00;;;;2076361;28;20697;-73
2020/12/20 03:07:46;;;;;;;3.83;2.40;;;;;20.90;100477.00;;;;2075204;28;20553;-73
2020/12/20 03:08:47;;;;;;;2.73;2.53;;;;;20.90;100456.00;;;;2067458;28;20646;-73
2020/12/20 03:09:50;;;;;;;3.50;2.70;;;;;20.90;100480.00;;;;2058697;28;20710;-74
2020/12/20 03:10:50;;;;;;;2.28;2.08;;;;;20.90;100473.00;;;;2062638;28;20255;-73
2020/12/20 03:11:51;;;;;;;2.60;2.40;;;;;20.90;100476.00;;;;2057210;28;20209;-73
2020/12/20 03:12:51;;;;;;;2.20;2.10;;;;;20.90;100484.00;;;;2061104;28;20224;-73
2020/12/20 03:13:52;;;;;;;2.40;2.20;;;;;20.90;100484.00;;;;2060623;28;20216;-74
2020/12/20 03:14:52;;;;;;;2.23;2.10;;;;;20.80;100476.00;;;;2060428;28;20253;-74
2020/12/20 03:15:52;;;;;;;2.20;2.00;;;;;20.90;100486.00;;;;2029677;28;20219;-73
2020/12/20 03:16:53;;;;;;;2.90;2.17;;;;;20.90;100479.00;;;;2031566;29;20215;-73
2020/12/20 03:17:53;;;;;;;2.37;2.17;;;;;20.90;100478.00;;;;2059402;28;20434;-74
2020/12/20 03:18:53;;;;;;;2.73;2.53;;;;;20.90;100470.00;;;;2062381;28;20225;-73
2020/12/20 03:19:54;;;;;;;2.60;2.17;;;;;20.90;100480.00;;;;2054350;28;20220;-73
2020/12/20 03:20:54;;;;;;;2.53;2.33;;;;;20.90;100474.00;;;;2063055;28;20701;-74
2020/12/20 03:21:54;;;;;;;3.47;2.70;;;;;20.90;100474.00;;;;2066972;28;20228;-73
2020/12/20 03:22:55;;;;;;;2.13;2.03;;;;;20.90;100484.00;;;;2070545;28;24871;-73
2020/12/20 03:24:00;;;;;;;2.40;2.20;;;;;20.90;100483.00;;;;2061205;28;20242;-73
2020/12/20 03:25:00;;;;;;;2.22;2.00;;;;;20.80;100489.00;;;;2059780;28;20464;-73
2020/12/20 03:26:01;;;;;;;2.00;1.90;;;;;20.80;100485.00;;;;2044018;28;20296;-74
2020/12/20 03:27:01;;;;;;;4.67;2.90;;;;;20.90;100485.00;;;;2067917;28;20220;-75
2020/12/20 03:28:01;;;;;;;2.23;2.10;;;;;20.80;100482.00;;;;2064818;28;20220;-73
2020/12/20 03:29:02;;;;;;;2.33;2.13;;;;;20.80;100484.00;;;;2055126;28;20592;-74
2020/12/20 03:30:04;;;;;;;2.40;2.20;;;;;20.80;100489.00;;;;2064825;28;20603;-73
2020/12/20 03:31:04;;;;;;;2.58;2.35;;;;;20.80;100489.00;;;;2053614;28;20815;-74
2020/12/20 03:32:04;;;;;;;2.77;2.57;;;;;20.80;100488.00;;;;2039782;28;20226;-73
2020/12/20 03:33:05;;;;;;;2.27;2.03;;;;;20.80;100489.00;;;;2044242;28;20232;-73
2020/12/20 03:34:05;;;;;;;3.00;2.50;;;;;20.80;100485.00;;;;2038651;28;20253;-72
2020/12/20 03:35:05;;;;;;;2.13;1.97;;;;;20.80;100465.00;;;;2058286;28;20665;-72
2020/12/20 03:36:06;;;;;;;2.20;2.00;;;;;20.80;100486.00;;;;2046531;28;20660;-72
2020/12/20 03:37:06;;;;;;;2.40;2.20;;;;;20.80;100479.00;;;;2055148;28;20221;-72
2020/12/20 03:38:07;;;;;;;2.13;2.03;;;;;20.80;100480.00;;;;2048253;28;20256;-73
2020/12/20 03:39:07;;;;;;;3.17;2.50;;;;;20.80;100482.00;;;;2054237;28;20609;-73
2020/12/20 03:40:07;;;;;;;3.23;2.50;;;;;20.90;100480.00;;;;2046977;28;20226;-73
2020/12/20 03:41:08;;;;;;;2.27;2.07;;;;;20.90;100482.00;;;;2078399;28;20297;-72
2020/12/20 03:42:08;;;;;;;2.50;2.30;;;;;20.80;100483.00;;;;2072307;28;20225;-72
2020/12/20 03:43:08;;;;;;;3.50;2.43;;;;;20.80;100480.00;;;;2069536;28;20220;-72
2020/12/20 03:44:09;;;;;;;2.47;2.30;;;;;20.80;100486.00;;;;2065900;28;20316;-72
2020/12/20 03:45:09;;;;;;;2.60;2.40;;;;;20.80;100492.00;;;;2060657;28;20306;-73
2020/12/20 03:46:09;;;;;;;2.37;2.23;;;;;20.80;100485.00;;;;2066510;28;20315;-73
2020/12/20 03:47:10;;;;;;;2.43;2.30;;;;;20.80;100489.00;;;;2077545;28;20216;-72
2020/12/20 03:48:10;;;;;;;2.40;2.20;;;;;20.80;100481.00;;;;2072787;28;20220;-72
2020/12/20 03:49:10;;;;;;;2.30;2.10;;;;;20.80;100493.00;;;;2069562;28;20242;-72
2020/12/20 03:50:11;;;;;;;2.60;2.40;;;;;20.80;100491.00;;;;2063605;28;20213;-73
2020/12/20 03:51:11;;;;;;;2.10;2.00;;;;;20.80;100499.00;;;;2069845;28;20719;-73
2020/12/20 03:52:11;;;;;;;2.70;2.50;;;;;20.80;100493.00;;;;2070992;28;20235;-72
2020/12/20 03:53:12;;;;;;;2.20;2.00;;;;;20.80;100504.00;;;;2078568;28;20270;-72
2020/12/20 03:54:12;;;;;;;2.50;1.97;;;;;20.80;100495.00;;;;2068965;28;20706;-72
2020/12/20 03:55:12;;;;;;;2.80;2.60;;;;;20.80;100500.00;;;;2062721;28;20975;-72
2020/12/20 03:56:13;;;;;;;2.23;2.03;;;;;20.80;100501.00;;;;2070741;28;20286;-72
2020/12/20 03:57:13;;;;;;;2.67;2.47;;;;;20.70;100502.00;;;;2070818;28;20245;-72
2020/12/20 03:58:13;;;;;;;2.37;2.27;;;;;20.80;100500.00;;;;2061788;28;20252;-72
2020/12/20 03:59:14;;;;;;;2.33;2.13;;;;;20.80;100498.00;;;;2062850;28;20224;-72
2020/12/20 04:00:14;;;;;;;2.43;2.23;;;;;20.80;100498.00;;;;2047469;28;20221;-72
2020/12/20 04:01:14;;;;;;;2.37;2.17;;;;;20.80;100495.00;;;;2062059;28;20216;-72
2020/12/20 04:02:15;;;;;;;4.50;2.17;;;;;20.80;100493.00;;;;2071805;28;20224;-72
2020/12/20 04:03:15;;;;;;;3.03;2.37;;;;;20.80;100496.00;;;;2070145;28;20770;-72
2020/12/20 04:04:16;;;;;;;2.60;2.40;;;;;20.80;100490.00;;;;2064695;28;20221;-72
2020/12/20 04:05:16;;;;;;;2.17;2.07;;;;;20.80;100503.00;;;;2062737;28;20722;-72
2020/12/20 04:06:16;;;;;;;2.20;2.10;;;;;20.80;100498.00;;;;2055992;28;20287;-72
2020/12/20 04:07:17;;;;;;;2.20;2.00;;;;;20.70;100502.00;;;;2055910;28;20209;-72
2020/12/20 04:08:17;;;;;;;3.00;2.50;;;;;20.70;100500.00;;;;2072302;28;20214;-72
2020/12/20 04:09:17;;;;;;;2.47;2.27;;;;;20.70;100499.00;;;;2073258;28;20231;-72
2020/12/20 04:10:18;;;;;;;2.63;2.20;;;;;20.80;100502.00;;;;2081032;28;20262;-72
2020/12/20 04:11:18;;;;;;;2.27;2.07;;;;;20.80;100503.00;;;;2064571;28;20260;-72
2020/12/20 04:12:19;;;;;;;2.20;2.00;;;;;20.80;100500.00;;;;2064280;28;20227;-72
2020/12/20 04:13:19;;;;;;;2.67;2.47;;;;;20.80;100493.00;;;;2072564;28;20262;-73
2020/12/20 04:14:19;;;;;;;2.60;2.20;;;;;20.80;100500.00;;;;2072554;28;20576;-72
2020/12/20 04:15:20;;;;;;;2.53;2.33;;;;;20.80;100503.00;;;;2064245;28;20654;-72
2020/12/20 04:16:20;;;;;;;2.07;1.87;;;;;20.70;100496.00;;;;2073227;28;20219;-74
2020/12/20 04:17:20;;;;;;;2.93;2.63;;;;;20.70;100496.00;;;;2072433;28;20212;-72
2020/12/20 04:18:21;;;;;;;2.37;2.07;;;;;20.80;100502.00;;;;2064396;28;20295;-73
2020/12/20 04:19:21;;;;;;;2.00;1.90;;;;;20.70;100491.00;;;;2081104;28;20255;-72
2020/12/20 04:20:21;;;;;;;2.13;1.97;;;;;20.70;100499.00;;;;2073346;28;20218;-72
2020/12/20 04:21:22;;;;;;;2.17;1.97;;;;;20.80;100500.00;;;;2081021;28;20268;-72
2020/12/20 04:22:22;;;;;;;2.37;2.17;;;;;20.70;100495.00;;;;2073387;28;20688;-72
2020/12/20 04:23:22;;;;;;;2.60;2.27;;;;;20.70;100495.00;;;;2080948;28;20691;-72
2020/12/20 04:24:23;;;;;;;2.23;2.10;;;;;20.70;100499.00;;;;2070177;28;20730;-72
2020/12/20 04:25:23;;;;;;;2.53;2.33;;;;;20.70;100488.00;;;;2072087;28;20795;-72
2020/12/20 04:26:23;;;;;;;2.40;2.13;;;;;20.70;100498.00;;;;2072313;28;20213;-73
2020/12/20 04:27:24;;;;;;;2.23;2.00;;;;;20.70;100496.00;;;;2063785;28;20228;-74
2020/12/20 04:28:24;;;;;;;3.27;2.33;;;;;20.70;100486.00;;;;2056712;28;20234;-74
2020/12/20 04:29:24;;;;;;;2.20;2.00;;;;;20.70;100502.00;;;;2056306;28;20226;-74
2020/12/20 04:30:26;;;;;;;2.60;2.40;;;;;20.70;100500.00;;;;2049052;28;20566;-74
2020/12/20 04:31:26;;;;;;;2.58;2.38;;;;;20.70;100501.00;;;;2071604;28;20786;-74
2020/12/20 04:32:27;;;;;;;2.20;2.07;;;;;20.70;100503.00;;;;2057392;28;20210;-74
2020/12/20 04:33:27;;;;;;;2.30;2.10;;;;;20.70;100488.00;;;;2071433;28;20264;-74
2020/12/20 04:34:27;;;;;;;2.37;2.17;;;;;20.70;100497.00;;;;2065165;28;20278;-73
2020/12/20 04:35:28;;;;;;;2.20;2.10;;;;;20.70;100496.00;;;;2071265;28;20216;-74
2020/12/20 04:36:28;;;;;;;2.20;2.00;;;;;20.70;100492.00;;;;2065306;28;20268;-74
2020/12/20 04:37:28;;;;;;;3.40;2.30;;;;;20.70;100487.00;;;;2071085;28;20205;-74
2020/12/20 04:38:29;;;;;;;2.27;2.07;;;;;20.70;100493.00;;;;2072793;28;20220;-74
2020/12/20 04:39:29;;;;;;;2.20;2.10;;;;;20.70;100486.00;;;;2065452;28;20210;-74
2020/12/20 04:40:30;;;;;;;2.73;2.30;;;;;20.70;100487.00;;;;2070949;28;20209;-74
2020/12/20 04:41:30;;;;;;;2.50;2.30;;;;;20.70;100494.00;;;;2057509;28;20234;-72
2020/12/20 04:42:30;;;;;;;2.40;2.20;;;;;20.70;100496.00;;;;2064233;28;20232;-72
2020/12/20 04:43:31;;;;;;;2.80;2.40;;;;;20.70;100486.00;;;;2065617;28;20212;-72
2020/12/20 04:44:31;;;;;;;2.40;2.20;;;;;20.70;100496.00;;;;2072008;28;20703;-72
2020/12/20 04:45:32;;;;;;;2.00;1.90;;;;;20.70;100499.00;;;;2064199;28;20204;-72
2020/12/20 04:46:33;;;;;;;2.30;1.90;;;;;20.60;100498.00;;;;2063942;28;20217;-72
2020/12/20 04:47:33;;;;;;;2.90;2.70;;;;;20.70;100493.00;;;;2064031;28;20240;-72
2020/12/20 04:48:37;;;;;;;2.33;2.13;;;;;20.70;100492.00;;;;2062203;28;20217;-72
2020/12/20 04:49:38;;;;;;;2.20;2.00;;;;;20.70;100501.00;;;;2056500;28;20713;-72
2020/12/20 04:50:38;;;;;;;2.30;2.07;;;;;20.70;100503.00;;;;2064211;28;20214;-73
2020/12/20 04:51:39;;;;;;;2.57;2.37;;;;;20.70;100503.00;;;;2056094;28;20218;-72
2020/12/20 04:52:40;;;;;;;2.05;1.95;;;;;20.70;100500.00;;;;2048570;28;20219;-72
2020/12/20 04:53:40;;;;;;;3.00;2.80;;;;;20.70;100497.00;;;;2053652;28;20240;-72
2020/12/20 04:54:40;;;;;;;2.20;2.10;;;;;20.70;100488.00;;;;2071772;28;20224;-72
2020/12/20 04:55:41;;;;;;;2.30;2.10;;;;;20.70;100498.00;;;;2055949;28;20219;-72
2020/12/20 04:56:41;;;;;;;2.30;2.10;;;;;20.70;100492.00;;;;2056095;28;20225;-72
2020/12/20 04:57:42;;;;;;;2.27;2.13;;;;;20.70;100484.00;;;;2063981;28;20309;-72
2020/12/20 04:58:43;;;;;;;2.80;2.28;;;;;20.70;100483.00;;;;2068758;28;20228;-72
2020/12/20 04:59:43;;;;;;;2.23;2.00;;;;;20.70;100495.00;;;;2063874;28;20210;-72